createdAt,value
2018-08-16T00:05:55.755Z,99.90
2018-08-16T00:15:57.042Z,99.90
2018-08-16T00:25:58.338Z,99.90
2018-08-16T00:35:59.613Z,99.90
2018-08-16T00:46:00.997Z,99.90
2018-08-16T00:56:02.291Z,99.90
2018-08-16T01:06:03.540Z,99.90
2018-08-16T01:16:04.802Z,99.90
2018-08-16T01:26:06.096Z,99.90
2018-08-16T01:36:07.328Z,99.90
2018-08-16T01:46:09.415Z,99.90
2018-08-16T01:56:10.693Z,99.90
2018-08-16T02:06:11.963Z,99.90
2018-08-16T02:16:13.291Z,99.90
2018-08-16T02:26:14.559Z,99.90
2018-08-16T02:36:15.854Z,99.90
2018-08-16T02:46:17.132Z,99.90
2018-08-16T02:56:19.171Z,99.90
2018-08-16T03:06:20.510Z,99.90
2018-08-16T03:16:21.755Z,99.90
2018-08-16T03:26:22.998Z,99.90
2018-08-16T03:36:24.365Z,99.90
2018-08-16T03:46:25.603Z,99.90
2018-08-16T03:56:26.870Z,99.90
2018-08-16T04:06:28.141Z,99.90
2018-08-16T04:16:29.417Z,99.90
2018-08-16T04:26:31.492Z,99.90
2018-08-16T04:36:32.761Z,99.90
2018-08-16T04:46:34.008Z,99.90
2018-08-16T04:56:36.137Z,99.90
2018-08-16T05:06:37.391Z,99.90
2018-08-16T05:16:38.662Z,99.90
2018-08-16T05:26:39.913Z,99.90
2018-08-16T05:36:41.926Z,99.90
2018-08-16T05:46:43.491Z,99.90
2018-08-16T05:56:44.889Z,99.90
2018-08-16T06:16:52.667Z,99.90
2018-08-16T06:26:54.029Z,99.90
2018-08-16T06:36:55.465Z,96.80
2018-08-16T06:46:56.763Z,94.60
2018-08-16T06:57:00.025Z,87.00
2018-08-16T07:07:01.583Z,86.90
2018-08-16T07:17:02.854Z,81.50
2018-08-16T07:27:04.122Z,74.80
2018-08-16T07:37:05.421Z,73.80
2018-08-16T07:47:06.700Z,69.90
2018-08-16T07:57:08.146Z,68.40
2018-08-16T08:07:09.344Z,63.50
2018-08-16T08:17:10.635Z,53.70
2018-08-16T08:27:11.892Z,49.70
2018-08-16T08:47:24.503Z,37.00
2018-08-16T08:57:26.540Z,47.20
2018-08-16T09:07:27.817Z,47.20
2018-08-16T09:17:29.175Z,50.60
2018-08-16T09:27:30.459Z,53.40
2018-08-16T09:37:31.705Z,57.50
2018-08-16T09:47:32.949Z,60.90
2018-08-16T09:57:34.243Z,64.00
2018-08-16T10:17:43.033Z,27.10
2018-08-16T10:27:44.294Z,27.00
2018-08-16T10:37:46.364Z,37.70
2018-08-16T10:47:47.624Z,37.60
2018-08-16T10:57:48.898Z,39.00
2018-08-16T11:07:50.935Z,45.20
2018-08-16T11:17:52.183Z,45.20
2018-08-16T11:27:54.225Z,40.90
2018-08-16T11:37:56.331Z,39.00
2018-08-16T11:47:57.543Z,38.90
2018-08-16T11:57:58.840Z,41.60
2018-08-16T12:08:00.857Z,41.20
2018-08-16T12:18:02.128Z,41.10
2018-08-16T12:28:04.162Z,46.40
2018-08-16T12:38:06.210Z,47.90
2018-08-16T12:48:07.474Z,47.80
2018-08-16T12:58:08.741Z,49.50
2018-08-16T13:08:09.983Z,49.70
2018-08-16T13:18:11.247Z,48.50
2018-08-16T13:28:12.511Z,49.20
2018-08-16T13:38:13.749Z,47.20
2018-08-16T13:48:15.061Z,48.50
2018-08-16T13:58:17.072Z,46.60
2018-08-16T14:08:18.341Z,46.50
2018-08-16T14:18:20.365Z,48.60
2018-08-16T14:28:21.683Z,48.60
2018-08-16T14:38:22.963Z,49.60
2018-08-16T14:48:24.233Z,46.70
2018-08-16T14:58:26.268Z,49.50
2018-08-16T15:08:27.542Z,49.40
2018-08-16T15:18:29.591Z,48.50
2018-08-16T15:28:30.851Z,48.50
2018-08-16T15:38:33.043Z,47.70
2018-08-16T15:48:34.346Z,47.60
2018-08-16T15:58:35.610Z,48.10
2018-08-16T16:08:36.980Z,49.20
2018-08-16T16:18:38.248Z,50.00
2018-08-16T16:28:40.297Z,51.00
2018-08-16T16:38:41.558Z,51.00
2018-08-16T16:48:43.599Z,51.20
2018-08-16T16:58:44.867Z,51.20
2018-08-16T17:08:46.966Z,53.10
2018-08-16T17:18:48.237Z,52.70
2018-08-16T17:28:49.520Z,54.10
2018-08-16T17:38:50.786Z,63.00
2018-08-16T17:48:52.797Z,68.90
2018-08-16T17:58:54.814Z,72.30
2018-08-16T18:08:56.183Z,72.30
2018-08-16T18:18:57.455Z,75.80
2018-08-16T18:28:58.730Z,80.20
2018-08-16T18:38:59.995Z,83.80
2018-08-16T18:49:01.266Z,90.40
2018-08-16T18:59:02.526Z,91.90
2018-08-16T19:09:03.781Z,94.30
2018-08-16T19:19:05.072Z,96.60
2018-08-16T19:29:07.138Z,99.90
2018-08-16T19:39:08.378Z,99.90
2018-08-16T19:49:10.400Z,99.90
2018-08-16T19:59:11.721Z,99.90
2018-08-16T20:09:14.998Z,99.90
2018-08-16T20:19:16.259Z,99.90
2018-08-16T20:29:17.510Z,99.90
2018-08-16T20:39:18.765Z,99.90
2018-08-16T20:49:20.028Z,99.90
2018-08-16T20:59:21.294Z,99.90
2018-08-16T21:09:22.548Z,99.90
2018-08-16T21:19:23.811Z,99.90
2018-08-16T21:29:25.075Z,99.90
2018-08-16T21:39:27.130Z,99.90
2018-08-16T21:49:28.402Z,99.90
2018-08-16T21:59:30.425Z,99.90
2018-08-16T22:09:31.769Z,99.90
2018-08-16T22:19:33.030Z,99.90
2018-08-16T22:29:34.310Z,99.90
2018-08-16T22:39:35.603Z,99.90
2018-08-16T22:49:37.654Z,99.90
2018-08-16T22:59:38.931Z,99.90
2018-08-16T23:09:40.226Z,99.90
2018-08-16T23:19:41.481Z,99.90
2018-08-16T23:29:42.741Z,99.90
2018-08-16T23:39:44.017Z,99.90
2018-08-16T23:49:45.293Z,99.90
2018-08-16T23:59:46.554Z,99.90
